sensor_id;sensor_type;location;lat;lon;timestamp;P1;durP1;ratioP1;P2;durP2;ratioP2
43837;SDS011;65998;46.256;7.534;2023-06-24T00:01:27;36.50;;;17.58;;
43837;SDS011;65998;46.256;7.534;2023-06-24T00:03:52;36.28;;;17.73;;
43837;SDS011;65998;46.256;7.534;2023-06-24T00:06:21;35.33;;;17.60;;
43837;SDS011;65998;46.256;7.534;2023-06-24T00:08:48;38.83;;;17.92;;
43837;SDS011;65998;46.256;7.534;2023-06-24T00:11:14;34.65;;;16.92;;
43837;SDS011;65998;46.256;7.534;2023-06-24T00:13:41;37.57;;;17.60;;
43837;SDS011;65998;46.256;7.534;2023-06-24T00:16:07;35.45;;;17.10;;
43837;SDS011;65998;46.256;7.534;2023-06-24T00:18:34;34.63;;;17.13;;
43837;SDS011;65998;46.256;7.534;2023-06-24T00:21:00;36.72;;;17.10;;
43837;SDS011;65998;46.256;7.534;2023-06-24T00:23:27;34.20;;;16.50;;
43837;SDS011;65998;46.256;7.534;2023-06-24T00:25:54;34.87;;;17.13;;
43837;SDS011;65998;46.256;7.534;2023-06-24T00:28:21;36.13;;;17.17;;
43837;SDS011;65998;46.256;7.534;2023-06-24T00:30:47;35.20;;;16.95;;
43837;SDS011;65998;46.256;7.534;2023-06-24T00:33:14;33.70;;;16.02;;
43837;SDS011;65998;46.256;7.534;2023-06-24T00:35:39;33.50;;;16.57;;
43837;SDS011;65998;46.256;7.534;2023-06-24T00:38:06;36.17;;;17.13;;
43837;SDS011;65998;46.256;7.534;2023-06-24T00:40:32;33.78;;;16.77;;
43837;SDS011;65998;46.256;7.534;2023-06-24T00:42:58;35.15;;;16.88;;
43837;SDS011;65998;46.256;7.534;2023-06-24T00:45:24;33.53;;;15.88;;
43837;SDS011;65998;46.256;7.534;2023-06-24T00:47:50;33.47;;;16.15;;
43837;SDS011;65998;46.256;7.534;2023-06-24T00:50:17;32.80;;;15.15;;
43837;SDS011;65998;46.256;7.534;2023-06-24T00:52:43;32.00;;;15.10;;
43837;SDS011;65998;46.256;7.534;2023-06-24T00:55:09;30.55;;;15.07;;
43837;SDS011;65998;46.256;7.534;2023-06-24T00:57:36;32.45;;;15.05;;
43837;SDS011;65998;46.256;7.534;2023-06-24T01:00:02;32.67;;;15.30;;
43837;SDS011;65998;46.256;7.534;2023-06-24T01:02:28;29.50;;;14.70;;
43837;SDS011;65998;46.256;7.534;2023-06-24T01:04:54;34.80;;;16.77;;
43837;SDS011;65998;46.256;7.534;2023-06-24T01:07:21;32.08;;;14.43;;
43837;SDS011;65998;46.256;7.534;2023-06-24T01:09:46;33.92;;;16.63;;
43837;SDS011;65998;46.256;7.534;2023-06-24T01:12:13;29.48;;;14.32;;
43837;SDS011;65998;46.256;7.534;2023-06-24T01:14:38;33.38;;;15.77;;
43837;SDS011;65998;46.256;7.534;2023-06-24T01:17:19;30.50;;;14.63;;
43837;SDS011;65998;46.256;7.534;2023-06-24T01:23:23;28.92;;;13.95;;
43837;SDS011;65998;46.256;7.534;2023-06-24T01:37:25;26.25;;;13.70;;
43837;SDS011;65998;46.256;7.534;2023-06-24T01:42:46;28.15;;;12.88;;
43837;SDS011;65998;46.256;7.534;2023-06-24T01:45:16;29.33;;;14.05;;
43837;SDS011;65998;46.256;7.534;2023-06-24T01:47:57;30.80;;;14.20;;
43837;SDS011;65998;46.256;7.534;2023-06-24T01:50:27;31.02;;;15.05;;
43837;SDS011;65998;46.256;7.534;2023-06-24T01:52:57;28.05;;;13.32;;
43837;SDS011;65998;46.256;7.534;2023-06-24T01:55:26;24.88;;;12.82;;
43837;SDS011;65998;46.256;7.534;2023-06-24T01:57:54;26.85;;;13.85;;
43837;SDS011;65998;46.256;7.534;2023-06-24T02:00:23;26.17;;;13.27;;
43837;SDS011;65998;46.256;7.534;2023-06-24T02:02:50;27.33;;;13.77;;
43837;SDS011;65998;46.256;7.534;2023-06-24T02:05:18;26.80;;;13.32;;
43837;SDS011;65998;46.256;7.534;2023-06-24T02:07:48;26.15;;;12.75;;
43837;SDS011;65998;46.256;7.534;2023-06-24T02:10:16;25.63;;;12.98;;
43837;SDS011;65998;46.256;7.534;2023-06-24T02:12:44;24.27;;;12.57;;
43837;SDS011;65998;46.256;7.534;2023-06-24T02:15:13;25.92;;;12.73;;
43837;SDS011;65998;46.256;7.534;2023-06-24T02:17:39;24.35;;;12.45;;
43837;SDS011;65998;46.256;7.534;2023-06-24T02:20:06;24.90;;;12.70;;
43837;SDS011;65998;46.256;7.534;2023-06-24T02:22:34;25.13;;;12.10;;
43837;SDS011;65998;46.256;7.534;2023-06-24T02:25:01;24.05;;;12.30;;
43837;SDS011;65998;46.256;7.534;2023-06-24T02:27:28;25.00;;;12.40;;
43837;SDS011;65998;46.256;7.534;2023-06-24T02:29:55;24.08;;;11.60;;
43837;SDS011;65998;46.256;7.534;2023-06-24T02:32:22;21.85;;;11.32;;
43837;SDS011;65998;46.256;7.534;2023-06-24T02:34:48;22.27;;;11.02;;
43837;SDS011;65998;46.256;7.534;2023-06-24T02:37:14;22.55;;;11.20;;
43837;SDS011;65998;46.256;7.534;2023-06-24T02:39:40;21.08;;;10.82;;
43837;SDS011;65998;46.256;7.534;2023-06-24T02:42:06;21.17;;;10.80;;
43837;SDS011;65998;46.256;7.534;2023-06-24T02:44:32;23.65;;;10.32;;
43837;SDS011;65998;46.256;7.534;2023-06-24T02:46:58;20.33;;;9.80;;
43837;SDS011;65998;46.256;7.534;2023-06-24T02:49:25;20.92;;;11.20;;
43837;SDS011;65998;46.256;7.534;2023-06-24T02:51:53;23.07;;;10.57;;
43837;SDS011;65998;46.256;7.534;2023-06-24T02:54:19;19.67;;;10.20;;
43837;SDS011;65998;46.256;7.534;2023-06-24T02:56:45;20.15;;;9.77;;
43837;SDS011;65998;46.256;7.534;2023-06-24T02:59:11;19.92;;;9.95;;
43837;SDS011;65998;46.256;7.534;2023-06-24T03:01:37;20.08;;;9.68;;
43837;SDS011;65998;46.256;7.534;2023-06-24T03:04:04;22.40;;;9.90;;
43837;SDS011;65998;46.256;7.534;2023-06-24T03:06:30;19.83;;;9.48;;
43837;SDS011;65998;46.256;7.534;2023-06-24T03:08:57;20.97;;;9.63;;
43837;SDS011;65998;46.256;7.534;2023-06-24T03:11:24;18.55;;;9.32;;
43837;SDS011;65998;46.256;7.534;2023-06-24T03:13:51;19.33;;;9.52;;
43837;SDS011;65998;46.256;7.534;2023-06-24T03:16:17;18.13;;;8.70;;
43837;SDS011;65998;46.256;7.534;2023-06-24T03:18:43;16.85;;;7.85;;
43837;SDS011;65998;46.256;7.534;2023-06-24T03:21:09;18.13;;;9.05;;
43837;SDS011;65998;46.256;7.534;2023-06-24T03:23:35;19.55;;;8.70;;
43837;SDS011;65998;46.256;7.534;2023-06-24T03:26:01;18.15;;;8.68;;
43837;SDS011;65998;46.256;7.534;2023-06-24T03:28:29;16.93;;;8.43;;
43837;SDS011;65998;46.256;7.534;2023-06-24T03:30:55;17.35;;;8.45;;
43837;SDS011;65998;46.256;7.534;2023-06-24T03:33:22;16.80;;;8.18;;
43837;SDS011;65998;46.256;7.534;2023-06-24T03:35:48;14.67;;;7.27;;
43837;SDS011;65998;46.256;7.534;2023-06-24T03:38:14;16.65;;;8.32;;
43837;SDS011;65998;46.256;7.534;2023-06-24T03:40:39;16.42;;;7.80;;
43837;SDS011;65998;46.256;7.534;2023-06-24T03:43:05;15.73;;;8.25;;
43837;SDS011;65998;46.256;7.534;2023-06-24T03:45:31;16.98;;;7.85;;
43837;SDS011;65998;46.256;7.534;2023-06-24T03:47:57;16.73;;;7.83;;
43837;SDS011;65998;46.256;7.534;2023-06-24T03:50:22;14.00;;;7.20;;
43837;SDS011;65998;46.256;7.534;2023-06-24T03:52:48;14.60;;;7.47;;
43837;SDS011;65998;46.256;7.534;2023-06-24T03:55:14;14.60;;;7.45;;
43837;SDS011;65998;46.256;7.534;2023-06-24T03:57:40;15.40;;;7.57;;
43837;SDS011;65998;46.256;7.534;2023-06-24T04:00:06;15.43;;;7.50;;
43837;SDS011;65998;46.256;7.534;2023-06-24T04:02:32;13.65;;;6.70;;
43837;SDS011;65998;46.256;7.534;2023-06-24T04:04:58;14.90;;;7.77;;
43837;SDS011;65998;46.256;7.534;2023-06-24T04:07:24;15.77;;;7.25;;
43837;SDS011;65998;46.256;7.534;2023-06-24T04:09:49;16.20;;;7.67;;
43837;SDS011;65998;46.256;7.534;2023-06-24T04:12:15;14.40;;;7.40;;
43837;SDS011;65998;46.256;7.534;2023-06-24T04:14:41;14.87;;;7.27;;
43837;SDS011;65998;46.256;7.534;2023-06-24T04:17:07;13.10;;;6.55;;
43837;SDS011;65998;46.256;7.534;2023-06-24T04:19:33;14.40;;;6.90;;
43837;SDS011;65998;46.256;7.534;2023-06-24T04:21:58;13.60;;;6.97;;
43837;SDS011;65998;46.256;7.534;2023-06-24T04:24:24;12.45;;;6.53;;
43837;SDS011;65998;46.256;7.534;2023-06-24T04:26:50;14.50;;;6.70;;
43837;SDS011;65998;46.256;7.534;2023-06-24T04:29:15;12.55;;;6.40;;
43837;SDS011;65998;46.256;7.534;2023-06-24T04:31:41;11.63;;;5.93;;
43837;SDS011;65998;46.256;7.534;2023-06-24T04:34:07;12.73;;;6.90;;
43837;SDS011;65998;46.256;7.534;2023-06-24T04:36:33;12.48;;;6.35;;
43837;SDS011;65998;46.256;7.534;2023-06-24T04:38:58;12.33;;;6.23;;
43837;SDS011;65998;46.256;7.534;2023-06-24T04:41:24;13.40;;;6.28;;
43837;SDS011;65998;46.256;7.534;2023-06-24T04:43:50;13.00;;;6.37;;
43837;SDS011;65998;46.256;7.534;2023-06-24T04:46:16;13.05;;;6.40;;
43837;SDS011;65998;46.256;7.534;2023-06-24T04:48:42;10.93;;;5.87;;
43837;SDS011;65998;46.256;7.534;2023-06-24T04:51:08;12.43;;;6.20;;
43837;SDS011;65998;46.256;7.534;2023-06-24T04:53:33;11.82;;;5.72;;
43837;SDS011;65998;46.256;7.534;2023-06-24T04:55:59;12.03;;;5.50;;
43837;SDS011;65998;46.256;7.534;2023-06-24T04:58:25;11.93;;;5.85;;
43837;SDS011;65998;46.256;7.534;2023-06-24T05:00:51;11.90;;;6.10;;
43837;SDS011;65998;46.256;7.534;2023-06-24T05:03:17;11.18;;;5.93;;
43837;SDS011;65998;46.256;7.534;2023-06-24T05:05:43;10.70;;;5.30;;
43837;SDS011;65998;46.256;7.534;2023-06-24T05:08:08;12.03;;;6.13;;
43837;SDS011;65998;46.256;7.534;2023-06-24T05:10:34;11.25;;;5.80;;
43837;SDS011;65998;46.256;7.534;2023-06-24T05:13:00;11.50;;;6.10;;
43837;SDS011;65998;46.256;7.534;2023-06-24T05:15:26;12.80;;;5.90;;
43837;SDS011;65998;46.256;7.534;2023-06-24T05:17:51;10.63;;;5.27;;
43837;SDS011;65998;46.256;7.534;2023-06-24T05:20:17;10.48;;;5.40;;
43837;SDS011;65998;46.256;7.534;2023-06-24T05:22:43;11.40;;;5.43;;
43837;SDS011;65998;46.256;7.534;2023-06-24T05:25:09;10.37;;;5.20;;
43837;SDS011;65998;46.256;7.534;2023-06-24T05:27:35;10.85;;;5.32;;
43837;SDS011;65998;46.256;7.534;2023-06-24T05:30:01;10.05;;;5.47;;
43837;SDS011;65998;46.256;7.534;2023-06-24T05:32:26;11.38;;;5.25;;
43837;SDS011;65998;46.256;7.534;2023-06-24T05:34:52;8.88;;;4.57;;
43837;SDS011;65998;46.256;7.534;2023-06-24T05:37:18;10.77;;;5.27;;
43837;SDS011;65998;46.256;7.534;2023-06-24T05:39:44;11.00;;;4.88;;
43837;SDS011;65998;46.256;7.534;2023-06-24T05:42:09;11.03;;;5.00;;
43837;SDS011;65998;46.256;7.534;2023-06-24T05:44:35;10.15;;;4.97;;
43837;SDS011;65998;46.256;7.534;2023-06-24T05:47:01;10.30;;;4.67;;
43837;SDS011;65998;46.256;7.534;2023-06-24T05:49:27;9.15;;;4.70;;
43837;SDS011;65998;46.256;7.534;2023-06-24T05:51:52;9.87;;;4.60;;
43837;SDS011;65998;46.256;7.534;2023-06-24T05:54:18;9.75;;;4.72;;
43837;SDS011;65998;46.256;7.534;2023-06-24T05:56:44;9.00;;;5.00;;
43837;SDS011;65998;46.256;7.534;2023-06-24T05:59:10;8.93;;;4.50;;
43837;SDS011;65998;46.256;7.534;2023-06-24T06:01:35;9.55;;;4.82;;
43837;SDS011;65998;46.256;7.534;2023-06-24T06:04:02;9.47;;;4.57;;
43837;SDS011;65998;46.256;7.534;2023-06-24T06:06:27;11.13;;;4.80;;
43837;SDS011;65998;46.256;7.534;2023-06-24T06:08:53;9.20;;;4.28;;
43837;SDS011;65998;46.256;7.534;2023-06-24T06:11:19;9.57;;;4.23;;
43837;SDS011;65998;46.256;7.534;2023-06-24T06:13:45;9.70;;;4.75;;
43837;SDS011;65998;46.256;7.534;2023-06-24T06:16:10;8.63;;;4.13;;
43837;SDS011;65998;46.256;7.534;2023-06-24T06:18:36;9.70;;;4.53;;
43837;SDS011;65998;46.256;7.534;2023-06-24T06:21:02;8.87;;;4.63;;
43837;SDS011;65998;46.256;7.534;2023-06-24T06:23:28;8.15;;;4.15;;
43837;SDS011;65998;46.256;7.534;2023-06-24T06:25:54;7.73;;;4.10;;
43837;SDS011;65998;46.256;7.534;2023-06-24T06:28:20;7.35;;;3.88;;
43837;SDS011;65998;46.256;7.534;2023-06-24T06:30:46;8.63;;;4.03;;
43837;SDS011;65998;46.256;7.534;2023-06-24T06:33:12;7.73;;;4.00;;
43837;SDS011;65998;46.256;7.534;2023-06-24T06:35:38;7.57;;;4.03;;
43837;SDS011;65998;46.256;7.534;2023-06-24T06:38:04;7.47;;;4.10;;
43837;SDS011;65998;46.256;7.534;2023-06-24T06:40:30;8.10;;;3.90;;
43837;SDS011;65998;46.256;7.534;2023-06-24T06:42:56;8.13;;;4.10;;
43837;SDS011;65998;46.256;7.534;2023-06-24T06:45:21;7.85;;;3.97;;
43837;SDS011;65998;46.256;7.534;2023-06-24T06:47:49;8.18;;;4.18;;
43837;SDS011;65998;46.256;7.534;2023-06-24T06:50:15;8.15;;;4.25;;
43837;SDS011;65998;46.256;7.534;2023-06-24T06:52:41;8.25;;;4.15;;
43837;SDS011;65998;46.256;7.534;2023-06-24T06:55:07;7.60;;;3.90;;
43837;SDS011;65998;46.256;7.534;2023-06-24T06:57:33;7.22;;;3.70;;
43837;SDS011;65998;46.256;7.534;2023-06-24T06:59:59;7.72;;;3.60;;
43837;SDS011;65998;46.256;7.534;2023-06-24T07:02:25;7.13;;;3.80;;
43837;SDS011;65998;46.256;7.534;2023-06-24T07:04:50;8.25;;;4.13;;
43837;SDS011;65998;46.256;7.534;2023-06-24T07:07:16;6.57;;;3.45;;
43837;SDS011;65998;46.256;7.534;2023-06-24T07:09:42;8.35;;;3.95;;
43837;SDS011;65998;46.256;7.534;2023-06-24T07:12:08;7.35;;;3.88;;
43837;SDS011;65998;46.256;7.534;2023-06-24T07:14:34;7.30;;;3.50;;
43837;SDS011;65998;46.256;7.534;2023-06-24T07:17:00;7.53;;;3.75;;
43837;SDS011;65998;46.256;7.534;2023-06-24T07:19:26;7.53;;;3.75;;
43837;SDS011;65998;46.256;7.534;2023-06-24T07:21:52;7.33;;;3.30;;
43837;SDS011;65998;46.256;7.534;2023-06-24T07:24:17;7.82;;;3.70;;
43837;SDS011;65998;46.256;7.534;2023-06-24T07:26:43;7.55;;;3.63;;
43837;SDS011;65998;46.256;7.534;2023-06-24T07:29:09;6.63;;;3.40;;
43837;SDS011;65998;46.256;7.534;2023-06-24T07:31:35;7.20;;;3.53;;
43837;SDS011;65998;46.256;7.534;2023-06-24T07:34:01;7.15;;;3.90;;
43837;SDS011;65998;46.256;7.534;2023-06-24T07:36:28;6.75;;;3.58;;
43837;SDS011;65998;46.256;7.534;2023-06-24T07:38:53;6.87;;;3.17;;
43837;SDS011;65998;46.256;7.534;2023-06-24T07:41:19;7.10;;;3.40;;
43837;SDS011;65998;46.256;7.534;2023-06-24T07:43:45;6.65;;;3.30;;
43837;SDS011;65998;46.256;7.534;2023-06-24T07:46:11;6.13;;;3.13;;
43837;SDS011;65998;46.256;7.534;2023-06-24T07:48:37;6.97;;;3.55;;
43837;SDS011;65998;46.256;7.534;2023-06-24T07:51:03;6.87;;;3.57;;
43837;SDS011;65998;46.256;7.534;2023-06-24T07:53:29;6.40;;;3.30;;
43837;SDS011;65998;46.256;7.534;2023-06-24T07:55:54;7.38;;;3.50;;
43837;SDS011;65998;46.256;7.534;2023-06-24T07:58:20;6.68;;;3.13;;
43837;SDS011;65998;46.256;7.534;2023-06-24T08:00:46;7.60;;;3.67;;
43837;SDS011;65998;46.256;7.534;2023-06-24T08:03:14;6.20;;;3.23;;
43837;SDS011;65998;46.256;7.534;2023-06-24T08:05:40;6.55;;;3.65;;
43837;SDS011;65998;46.256;7.534;2023-06-24T08:08:07;8.43;;;3.55;;
43837;SDS011;65998;46.256;7.534;2023-06-24T08:10:33;6.65;;;3.42;;
43837;SDS011;65998;46.256;7.534;2023-06-24T08:12:59;6.25;;;2.92;;
43837;SDS011;65998;46.256;7.534;2023-06-24T08:15:25;6.80;;;3.08;;
43837;SDS011;65998;46.256;7.534;2023-06-24T08:17:54;6.13;;;3.30;;
43837;SDS011;65998;46.256;7.534;2023-06-24T08:20:21;5.95;;;2.88;;
43837;SDS011;65998;46.256;7.534;2023-06-24T08:22:47;6.40;;;3.28;;
43837;SDS011;65998;46.256;7.534;2023-06-24T08:25:13;6.63;;;3.10;;
43837;SDS011;65998;46.256;7.534;2023-06-24T08:27:39;8.27;;;3.50;;
43837;SDS011;65998;46.256;7.534;2023-06-24T08:30:06;6.78;;;3.35;;
43837;SDS011;65998;46.256;7.534;2023-06-24T08:32:32;6.05;;;3.03;;
43837;SDS011;65998;46.256;7.534;2023-06-24T08:34:59;5.80;;;2.85;;
43837;SDS011;65998;46.256;7.534;2023-06-24T08:37:24;6.50;;;3.03;;
43837;SDS011;65998;46.256;7.534;2023-06-24T08:39:50;6.07;;;2.90;;
43837;SDS011;65998;46.256;7.534;2023-06-24T08:42:16;6.20;;;2.83;;
43837;SDS011;65998;46.256;7.534;2023-06-24T08:44:42;6.35;;;3.05;;
43837;SDS011;65998;46.256;7.534;2023-06-24T08:47:08;5.53;;;2.73;;
43837;SDS011;65998;46.256;7.534;2023-06-24T08:49:36;6.60;;;3.10;;
43837;SDS011;65998;46.256;7.534;2023-06-24T08:52:18;6.60;;;2.90;;
43837;SDS011;65998;46.256;7.534;2023-06-24T08:54:47;7.00;;;3.10;;
43837;SDS011;65998;46.256;7.534;2023-06-24T08:57:16;6.10;;;2.85;;
43837;SDS011;65998;46.256;7.534;2023-06-24T08:59:42;5.73;;;2.93;;
43837;SDS011;65998;46.256;7.534;2023-06-24T09:02:08;5.88;;;2.70;;
43837;SDS011;65998;46.256;7.534;2023-06-24T09:04:34;6.35;;;2.88;;
43837;SDS011;65998;46.256;7.534;2023-06-24T09:07:00;5.72;;;2.90;;
43837;SDS011;65998;46.256;7.534;2023-06-24T09:09:26;6.53;;;3.08;;
43837;SDS011;65998;46.256;7.534;2023-06-24T09:11:55;5.47;;;2.53;;
43837;SDS011;65998;46.256;7.534;2023-06-24T09:14:26;5.75;;;2.83;;
43837;SDS011;65998;46.256;7.534;2023-06-24T09:16:57;5.53;;;2.90;;
43837;SDS011;65998;46.256;7.534;2023-06-24T09:19:26;5.50;;;2.75;;
43837;SDS011;65998;46.256;7.534;2023-06-24T09:21:52;6.40;;;3.00;;
43837;SDS011;65998;46.256;7.534;2023-06-24T09:24:18;5.57;;;2.60;;
43837;SDS011;65998;46.256;7.534;2023-06-24T09:26:44;5.63;;;2.63;;
43837;SDS011;65998;46.256;7.534;2023-06-24T09:29:11;5.82;;;2.88;;
43837;SDS011;65998;46.256;7.534;2023-06-24T09:31:47;5.90;;;2.88;;
43837;SDS011;65998;46.256;7.534;2023-06-24T09:34:16;5.40;;;2.50;;
43837;SDS011;65998;46.256;7.534;2023-06-24T09:36:42;5.20;;;2.50;;
43837;SDS011;65998;46.256;7.534;2023-06-24T09:39:10;5.18;;;2.50;;
43837;SDS011;65998;46.256;7.534;2023-06-24T09:41:36;5.78;;;2.90;;
43837;SDS011;65998;46.256;7.534;2023-06-24T09:44:10;5.97;;;2.88;;
43837;SDS011;65998;46.256;7.534;2023-06-24T09:46:37;5.65;;;2.65;;
43837;SDS011;65998;46.256;7.534;2023-06-24T09:49:06;4.95;;;2.40;;
43837;SDS011;65998;46.256;7.534;2023-06-24T09:51:33;5.00;;;2.47;;
43837;SDS011;65998;46.256;7.534;2023-06-24T09:54:06;5.75;;;2.70;;
43837;SDS011;65998;46.256;7.534;2023-06-24T09:56:36;5.53;;;2.53;;
43837;SDS011;65998;46.256;7.534;2023-06-24T09:59:05;6.05;;;3.00;;
43837;SDS011;65998;46.256;7.534;2023-06-24T10:01:32;6.00;;;2.60;;
43837;SDS011;65998;46.256;7.534;2023-06-24T10:04:02;5.38;;;2.83;;
43837;SDS011;65998;46.256;7.534;2023-06-24T10:06:29;6.10;;;2.65;;
43837;SDS011;65998;46.256;7.534;2023-06-24T10:08:55;6.25;;;2.92;;
43837;SDS011;65998;46.256;7.534;2023-06-24T10:11:22;5.65;;;2.60;;
43837;SDS011;65998;46.256;7.534;2023-06-24T10:13:48;5.28;;;2.60;;
43837;SDS011;65998;46.256;7.534;2023-06-24T10:16:14;5.65;;;2.30;;
43837;SDS011;65998;46.256;7.534;2023-06-24T10:18:40;5.95;;;2.78;;
43837;SDS011;65998;46.256;7.534;2023-06-24T10:21:09;5.43;;;2.60;;
43837;SDS011;65998;46.256;7.534;2023-06-24T10:26:26;5.50;;;2.72;;
43837;SDS011;65998;46.256;7.534;2023-06-24T10:34:22;4.83;;;2.50;;
43837;SDS011;65998;46.256;7.534;2023-06-24T10:37:04;5.93;;;2.60;;
43837;SDS011;65998;46.256;7.534;2023-06-24T10:42:37;5.00;;;2.47;;
43837;SDS011;65998;46.256;7.534;2023-06-24T10:47:36;4.93;;;2.50;;
43837;SDS011;65998;46.256;7.534;2023-06-24T10:50:03;4.70;;;2.30;;
43837;SDS011;65998;46.256;7.534;2023-06-24T10:52:29;4.45;;;2.25;;
43837;SDS011;65998;46.256;7.534;2023-06-24T10:54:56;5.00;;;2.33;;
43837;SDS011;65998;46.256;7.534;2023-06-24T10:57:23;4.78;;;2.45;;
43837;SDS011;65998;46.256;7.534;2023-06-24T10:59:52;5.05;;;2.58;;
43837;SDS011;65998;46.256;7.534;2023-06-24T11:02:19;5.30;;;2.40;;
43837;SDS011;65998;46.256;7.534;2023-06-24T11:04:47;5.13;;;2.70;;
43837;SDS011;65998;46.256;7.534;2023-06-24T11:07:16;5.03;;;2.50;;
43837;SDS011;65998;46.256;7.534;2023-06-24T11:09:58;4.45;;;2.30;;
43837;SDS011;65998;46.256;7.534;2023-06-24T11:12:35;4.35;;;2.38;;
43837;SDS011;65998;46.256;7.534;2023-06-24T11:15:09;4.68;;;2.70;;
43837;SDS011;65998;46.256;7.534;2023-06-24T11:17:37;4.90;;;2.42;;
43837;SDS011;65998;46.256;7.534;2023-06-24T11:20:11;4.87;;;2.30;;
43837;SDS011;65998;46.256;7.534;2023-06-24T11:22:37;4.75;;;2.25;;
43837;SDS011;65998;46.256;7.534;2023-06-24T11:25:05;4.10;;;2.08;;
43837;SDS011;65998;46.256;7.534;2023-06-24T11:27:31;4.97;;;2.50;;
43837;SDS011;65998;46.256;7.534;2023-06-24T11:29:58;4.60;;;2.15;;
43837;SDS011;65998;46.256;7.534;2023-06-24T11:32:24;5.80;;;2.50;;
43837;SDS011;65998;46.256;7.534;2023-06-24T11:34:50;5.00;;;2.25;;
43837;SDS011;65998;46.256;7.534;2023-06-24T11:37:17;4.43;;;2.05;;
43837;SDS011;65998;46.256;7.534;2023-06-24T11:39:44;4.57;;;2.43;;
43837;SDS011;65998;46.256;7.534;2023-06-24T11:42:25;4.55;;;2.08;;
43837;SDS011;65998;46.256;7.534;2023-06-24T11:44:51;4.20;;;2.03;;
43837;SDS011;65998;46.256;7.534;2023-06-24T11:47:16;4.53;;;2.30;;
43837;SDS011;65998;46.256;7.534;2023-06-24T11:49:50;4.30;;;2.10;;
43837;SDS011;65998;46.256;7.534;2023-06-24T11:52:16;5.10;;;2.15;;
43837;SDS011;65998;46.256;7.534;2023-06-24T11:54:42;4.00;;;1.92;;
43837;SDS011;65998;46.256;7.534;2023-06-24T11:57:08;4.90;;;2.40;;
43837;SDS011;65998;46.256;7.534;2023-06-24T11:59:34;4.22;;;2.10;;
43837;SDS011;65998;46.256;7.534;2023-06-24T12:01:59;4.43;;;2.17;;
43837;SDS011;65998;46.256;7.534;2023-06-24T12:04:32;4.85;;;2.20;;
43837;SDS011;65998;46.256;7.534;2023-06-24T12:06:58;4.60;;;2.30;;
43837;SDS011;65998;46.256;7.534;2023-06-24T12:09:25;4.85;;;2.30;;
43837;SDS011;65998;46.256;7.534;2023-06-24T12:11:51;4.18;;;2.13;;
43837;SDS011;65998;46.256;7.534;2023-06-24T12:14:18;4.63;;;1.90;;
43837;SDS011;65998;46.256;7.534;2023-06-24T12:16:44;4.85;;;2.35;;
43837;SDS011;65998;46.256;7.534;2023-06-24T12:19:10;4.78;;;2.10;;
43837;SDS011;65998;46.256;7.534;2023-06-24T12:21:36;5.07;;;2.17;;
43837;SDS011;65998;46.256;7.534;2023-06-24T12:24:02;4.97;;;2.30;;
43837;SDS011;65998;46.256;7.534;2023-06-24T12:26:28;4.10;;;2.00;;
43837;SDS011;65998;46.256;7.534;2023-06-24T12:28:54;4.53;;;2.13;;
43837;SDS011;65998;46.256;7.534;2023-06-24T12:31:20;4.35;;;2.10;;
43837;SDS011;65998;46.256;7.534;2023-06-24T12:33:46;4.32;;;2.20;;
43837;SDS011;65998;46.256;7.534;2023-06-24T12:36:12;4.85;;;2.25;;
43837;SDS011;65998;46.256;7.534;2023-06-24T12:38:38;4.10;;;2.13;;
43837;SDS011;65998;46.256;7.534;2023-06-24T12:41:03;4.50;;;2.42;;
43837;SDS011;65998;46.256;7.534;2023-06-24T12:43:29;4.30;;;1.90;;
43837;SDS011;65998;46.256;7.534;2023-06-24T12:45:55;4.13;;;2.03;;
43837;SDS011;65998;46.256;7.534;2023-06-24T12:48:21;4.07;;;1.90;;
43837;SDS011;65998;46.256;7.534;2023-06-24T12:50:47;4.20;;;2.07;;
43837;SDS011;65998;46.256;7.534;2023-06-24T12:53:13;4.53;;;1.98;;
43837;SDS011;65998;46.256;7.534;2023-06-24T12:55:38;4.50;;;2.17;;
43837;SDS011;65998;46.256;7.534;2023-06-24T12:58:04;4.20;;;1.90;;
43837;SDS011;65998;46.256;7.534;2023-06-24T13:00:30;4.53;;;2.05;;
43837;SDS011;65998;46.256;7.534;2023-06-24T13:02:56;4.80;;;2.20;;
43837;SDS011;65998;46.256;7.534;2023-06-24T13:05:22;4.43;;;2.13;;
43837;SDS011;65998;46.256;7.534;2023-06-24T13:07:48;3.92;;;1.88;;
43837;SDS011;65998;46.256;7.534;2023-06-24T13:10:13;4.43;;;2.40;;
43837;SDS011;65998;46.256;7.534;2023-06-24T13:12:39;4.15;;;2.10;;
43837;SDS011;65998;46.256;7.534;2023-06-24T13:15:05;4.32;;;2.05;;
43837;SDS011;65998;46.256;7.534;2023-06-24T13:17:32;4.43;;;2.05;;
43837;SDS011;65998;46.256;7.534;2023-06-24T13:19:57;4.28;;;1.95;;
43837;SDS011;65998;46.256;7.534;2023-06-24T13:22:24;4.30;;;1.83;;
43837;SDS011;65998;46.256;7.534;2023-06-24T13:24:49;3.77;;;1.90;;
43837;SDS011;65998;46.256;7.534;2023-06-24T13:27:16;3.90;;;2.08;;
43837;SDS011;65998;46.256;7.534;2023-06-24T13:29:42;4.15;;;1.70;;
43837;SDS011;65998;46.256;7.534;2023-06-24T13:32:08;4.88;;;2.03;;
43837;SDS011;65998;46.256;7.534;2023-06-24T13:34:34;3.35;;;1.58;;
43837;SDS011;65998;46.256;7.534;2023-06-24T13:37:01;4.40;;;2.20;;
43837;SDS011;65998;46.256;7.534;2023-06-24T13:39:26;3.13;;;1.67;;
43837;SDS011;65998;46.256;7.534;2023-06-24T13:41:52;3.53;;;1.70;;
43837;SDS011;65998;46.256;7.534;2023-06-24T13:44:18;4.68;;;2.10;;
43837;SDS011;65998;46.256;7.534;2023-06-24T13:46:44;4.72;;;2.05;;
43837;SDS011;65998;46.256;7.534;2023-06-24T13:49:10;3.97;;;1.90;;
43837;SDS011;65998;46.256;7.534;2023-06-24T13:51:36;3.88;;;1.90;;
43837;SDS011;65998;46.256;7.534;2023-06-24T13:54:02;4.00;;;1.85;;
43837;SDS011;65998;46.256;7.534;2023-06-24T13:56:29;4.63;;;1.80;;
43837;SDS011;65998;46.256;7.534;2023-06-24T13:58:54;3.75;;;1.75;;
43837;SDS011;65998;46.256;7.534;2023-06-24T14:01:21;3.95;;;1.80;;
43837;SDS011;65998;46.256;7.534;2023-06-24T14:03:47;4.43;;;1.90;;
43837;SDS011;65998;46.256;7.534;2023-06-24T14:06:15;4.07;;;1.90;;
43837;SDS011;65998;46.256;7.534;2023-06-24T14:08:42;3.78;;;1.90;;
43837;SDS011;65998;46.256;7.534;2023-06-24T14:11:08;3.80;;;1.98;;
43837;SDS011;65998;46.256;7.534;2023-06-24T14:13:34;4.38;;;2.00;;
43837;SDS011;65998;46.256;7.534;2023-06-24T14:16:00;4.53;;;2.10;;
43837;SDS011;65998;46.256;7.534;2023-06-24T14:18:26;3.78;;;1.70;;
43837;SDS011;65998;46.256;7.534;2023-06-24T14:20:52;4.47;;;1.90;;
43837;SDS011;65998;46.256;7.534;2023-06-24T14:23:17;4.77;;;1.90;;
43837;SDS011;65998;46.256;7.534;2023-06-24T14:25:43;4.03;;;1.95;;
43837;SDS011;65998;46.256;7.534;2023-06-24T14:28:09;3.20;;;1.70;;
43837;SDS011;65998;46.256;7.534;2023-06-24T14:30:35;4.07;;;1.80;;
43837;SDS011;65998;46.256;7.534;2023-06-24T14:33:01;3.97;;;1.80;;
43837;SDS011;65998;46.256;7.534;2023-06-24T14:35:27;4.32;;;2.03;;
43837;SDS011;65998;46.256;7.534;2023-06-24T14:37:52;4.07;;;1.93;;
43837;SDS011;65998;46.256;7.534;2023-06-24T14:40:18;3.72;;;1.75;;
43837;SDS011;65998;46.256;7.534;2023-06-24T14:42:44;3.70;;;1.83;;
43837;SDS011;65998;46.256;7.534;2023-06-24T14:45:10;3.80;;;1.90;;
43837;SDS011;65998;46.256;7.534;2023-06-24T14:47:36;3.88;;;1.98;;
43837;SDS011;65998;46.256;7.534;2023-06-24T14:50:02;3.63;;;1.60;;
43837;SDS011;65998;46.256;7.534;2023-06-24T14:52:28;3.75;;;1.80;;
43837;SDS011;65998;46.256;7.534;2023-06-24T14:54:54;3.47;;;1.80;;
43837;SDS011;65998;46.256;7.534;2023-06-24T14:57:20;4.83;;;2.00;;
43837;SDS011;65998;46.256;7.534;2023-06-24T14:59:46;3.80;;;1.70;;
43837;SDS011;65998;46.256;7.534;2023-06-24T15:02:12;3.40;;;1.70;;
43837;SDS011;65998;46.256;7.534;2023-06-24T15:04:38;3.90;;;1.70;;
43837;SDS011;65998;46.256;7.534;2023-06-24T15:07:03;3.90;;;1.67;;
43837;SDS011;65998;46.256;7.534;2023-06-24T15:09:29;4.47;;;1.70;;